sensor_id;sensor_type;location;lat;lon;timestamp;pressure;altitude;pressure_sealevel;temperature;humidity
54503;BME280;40411;50.090;21.954;2022-07-12T00:01:18;152375.28;;;13.24;100.00
54503;BME280;40411;50.090;21.954;2022-07-12T00:03:44;152391.97;;;13.31;100.00
54503;BME280;40411;50.090;21.954;2022-07-12T00:06:10;152420.19;;;13.42;100.00
54503;BME280;40411;50.090;21.954;2022-07-12T00:08:36;152395.84;;;13.32;100.00
54503;BME280;40411;50.090;21.954;2022-07-12T00:11:06;152365.00;;;13.20;100.00
54503;BME280;40411;50.090;21.954;2022-07-12T00:13:32;152426.59;;;13.45;100.00
54503;BME280;40411;50.090;21.954;2022-07-12T00:15:58;152377.81;;;13.25;100.00
54503;BME280;40411;50.090;21.954;2022-07-12T00:18:24;152416.34;;;13.40;100.00
54503;BME280;40411;50.090;21.954;2022-07-12T00:20:50;152449.66;;;13.54;100.00
54503;BME280;40411;50.090;21.954;2022-07-12T00:23:17;152421.44;;;13.43;100.00
54503;BME280;40411;50.090;21.954;2022-07-12T00:25:43;152390.69;;;13.30;100.00
54503;BME280;40411;50.090;21.954;2022-07-12T00:28:08;152411.22;;;13.38;100.00
54503;BME280;40411;50.090;21.954;2022-07-12T00:30:34;152386.81;;;13.29;100.00
54503;BME280;40411;50.090;21.954;2022-07-12T00:33:00;152352.22;;;13.15;100.00
54503;BME280;40411;50.090;21.954;2022-07-12T00:35:26;152323.97;;;13.04;100.00
54503;BME280;40411;50.090;21.954;2022-07-12T00:37:52;152336.78;;;13.09;100.00
54503;BME280;40411;50.090;21.954;2022-07-12T00:40:18;152303.50;;;12.95;100.00
54503;BME280;40411;50.090;21.954;2022-07-12T00:42:44;152318.88;;;13.02;100.00
54503;BME280;40411;50.090;21.954;2022-07-12T00:45:10;152341.94;;;13.11;100.00
54503;BME280;40411;50.090;21.954;2022-07-12T00:47:38;152295.75;;;12.92;100.00
54503;BME280;40411;50.090;21.954;2022-07-12T00:50:07;152341.94;;;13.11;100.00
54503;BME280;40411;50.090;21.954;2022-07-12T00:52:35;152321.41;;;13.03;100.00
54503;BME280;40411;50.090;21.954;2022-07-12T00:55:03;152298.34;;;12.93;100.00
54503;BME280;40411;50.090;21.954;2022-07-12T00:57:29;152320.13;;;13.02;100.00
54503;BME280;40411;50.090;21.954;2022-07-12T00:59:55;152272.69;;;12.83;100.00
54503;BME280;40411;50.090;21.954;2022-07-12T01:02:21;152306.03;;;12.96;100.00
54503;BME280;40411;50.090;21.954;2022-07-12T01:04:47;152262.47;;;12.79;100.00
54503;BME280;40411;50.090;21.954;2022-07-12T01:07:13;152312.47;;;12.99;100.00
54503;BME280;40411;50.090;21.954;2022-07-12T01:09:40;152322.69;;;13.03;100.00
54503;BME280;40411;50.090;21.954;2022-07-12T01:12:06;152313.72;;;13.00;100.00
54503;BME280;40411;50.090;21.954;2022-07-12T01:14:34;152311.19;;;12.99;100.00
54503;BME280;40411;50.090;21.954;2022-07-12T01:17:00;152358.56;;;13.17;100.00
54503;BME280;40411;50.090;21.954;2022-07-12T01:19:26;152420.19;;;13.42;100.00
54503;BME280;40411;50.090;21.954;2022-07-12T01:21:53;152493.28;;;13.71;100.00
54503;BME280;40411;50.090;21.954;2022-07-12T01:24:21;152512.50;;;13.79;100.00
54503;BME280;40411;50.090;21.954;2022-07-12T01:26:49;152483.00;;;13.67;100.00
54503;BME280;40411;50.090;21.954;2022-07-12T01:29:16;152426.59;;;13.45;100.00
54503;BME280;40411;50.090;21.954;2022-07-12T01:31:42;152375.28;;;13.24;100.00
54503;BME280;40411;50.090;21.954;2022-07-12T01:34:09;152461.22;;;13.58;100.00
54503;BME280;40411;50.090;21.954;2022-07-12T01:36:35;152441.97;;;13.51;100.00
54503;BME280;40411;50.090;21.954;2022-07-12T01:39:03;152425.31;;;13.44;100.00
54503;BME280;40411;50.090;21.954;2022-07-12T01:41:31;152470.19;;;13.62;100.00
54503;BME280;40411;50.090;21.954;2022-07-12T01:43:57;152477.91;;;13.65;100.00
54503;BME280;40411;50.090;21.954;2022-07-12T01:46:24;152459.94;;;13.58;100.00
54503;BME280;40411;50.090;21.954;2022-07-12T01:48:49;152476.59;;;13.64;100.00
54503;BME280;40411;50.090;21.954;2022-07-12T01:51:16;152520.22;;;13.82;100.00
54503;BME280;40411;50.090;21.954;2022-07-12T01:53:42;152403.53;;;13.35;100.00
54503;BME280;40411;50.090;21.954;2022-07-12T01:56:07;152370.13;;;13.22;100.00
54503;BME280;40411;50.090;21.954;2022-07-12T01:58:34;152336.78;;;13.09;100.00
54503;BME280;40411;50.090;21.954;2022-07-12T02:01:01;152418.91;;;13.41;100.00
54503;BME280;40411;50.090;21.954;2022-07-12T02:03:26;152411.22;;;13.38;100.00
54503;BME280;40411;50.090;21.954;2022-07-12T02:05:53;152375.28;;;13.24;100.00
54503;BME280;40411;50.090;21.954;2022-07-12T02:08:18;152403.53;;;13.35;100.00
54503;BME280;40411;50.090;21.954;2022-07-12T02:10:44;152399.66;;;13.34;100.00
54503;BME280;40411;50.090;21.954;2022-07-12T02:13:10;152409.94;;;13.38;100.00
54503;BME280;40411;50.090;21.954;2022-07-12T02:15:36;152429.19;;;13.46;100.00
54503;BME280;40411;50.090;21.954;2022-07-12T02:18:02;152421.44;;;13.43;100.00
54503;BME280;40411;50.090;21.954;2022-07-12T02:20:29;152447.13;;;13.53;100.00
54503;BME280;40411;50.090;21.954;2022-07-12T02:22:54;152454.81;;;13.56;100.00
54503;BME280;40411;50.090;21.954;2022-07-12T02:25:20;152475.31;;;13.64;100.00
54503;BME280;40411;50.090;21.954;2022-07-12T02:27:46;152494.56;;;13.72;100.00
54503;BME280;40411;50.090;21.954;2022-07-12T02:30:12;152447.13;;;13.53;100.00
54503;BME280;40411;50.090;21.954;2022-07-12T02:32:38;152383.00;;;13.27;100.00
54503;BME280;40411;50.090;21.954;2022-07-12T02:35:05;152416.34;;;13.40;100.00
54503;BME280;40411;50.090;21.954;2022-07-12T02:37:31;152348.34;;;13.13;100.00
54503;BME280;40411;50.090;21.954;2022-07-12T02:39:57;152370.13;;;13.22;100.00
54503;BME280;40411;50.090;21.954;2022-07-12T02:42:42;152361.16;;;13.18;100.00
54503;BME280;40411;50.090;21.954;2022-07-12T02:45:09;152352.22;;;13.15;100.00
54503;BME280;40411;50.090;21.954;2022-07-12T02:47:39;152385.56;;;13.28;100.00
54503;BME280;40411;50.090;21.954;2022-07-12T02:50:06;152413.75;;;13.39;100.00
54503;BME280;40411;50.090;21.954;2022-07-12T02:52:33;152429.19;;;13.46;100.00
54503;BME280;40411;50.090;21.954;2022-07-12T02:54:59;152436.88;;;13.49;100.00
54503;BME280;40411;50.090;21.954;2022-07-12T02:57:25;152394.56;;;13.32;100.00
54503;BME280;40411;50.090;21.954;2022-07-12T02:59:51;152394.56;;;13.32;100.00
54503;BME280;40411;50.090;21.954;2022-07-12T03:02:17;152391.97;;;13.31;100.00
54503;BME280;40411;50.090;21.954;2022-07-12T03:04:43;152354.75;;;13.16;100.00
54503;BME280;40411;50.090;21.954;2022-07-12T03:07:09;152367.59;;;13.21;100.00
54503;BME280;40411;50.090;21.954;2022-07-12T03:09:35;152403.53;;;13.35;100.00
54503;BME280;40411;50.090;21.954;2022-07-12T03:12:01;152391.97;;;13.31;100.00
54503;BME280;40411;50.090;21.954;2022-07-12T03:14:27;152441.97;;;13.51;100.00
54503;BME280;40411;50.090;21.954;2022-07-12T03:16:52;152466.34;;;13.60;100.00
54503;BME280;40411;50.090;21.954;2022-07-12T03:19:18;152463.75;;;13.59;100.00
54503;BME280;40411;50.090;21.954;2022-07-12T03:21:44;152511.22;;;13.78;100.00
54503;BME280;40411;50.090;21.954;2022-07-12T03:24:10;152535.63;;;13.88;100.00
54503;BME280;40411;50.090;21.954;2022-07-12T03:26:36;152485.59;;;13.68;100.00
54503;BME280;40411;50.090;21.954;2022-07-12T03:29:02;152530.47;;;13.86;100.00
54503;BME280;40411;50.090;21.954;2022-07-12T03:31:28;152527.94;;;13.85;100.00
54503;BME280;40411;50.090;21.954;2022-07-12T03:33:54;152498.38;;;13.73;100.00
54503;BME280;40411;50.090;21.954;2022-07-12T03:36:20;152549.72;;;13.94;100.00
54503;BME280;40411;50.090;21.954;2022-07-12T03:38:46;152498.38;;;13.73;100.00
54503;BME280;40411;50.090;21.954;2022-07-12T03:41:12;152533.03;;;13.87;100.00
54503;BME280;40411;50.090;21.954;2022-07-12T03:43:38;152549.72;;;13.94;100.00
54503;BME280;40411;50.090;21.954;2022-07-12T03:46:04;152606.16;;;14.16;100.00
54503;BME280;40411;50.090;21.954;2022-07-12T03:48:30;152580.50;;;14.06;100.00
54503;BME280;40411;50.090;21.954;2022-07-12T03:50:56;152602.28;;;14.15;100.00
54503;BME280;40411;50.090;21.954;2022-07-12T03:53:22;152626.69;;;14.24;100.00
54503;BME280;40411;50.090;21.954;2022-07-12T03:55:48;152634.38;;;14.27;100.00
54503;BME280;40411;50.090;21.954;2022-07-12T03:58:14;152542.03;;;13.91;100.00
54503;BME280;40411;50.090;21.954;2022-07-12T04:00:40;152568.97;;;14.01;100.00
54503;BME280;40411;50.090;21.954;2022-07-12T04:03:09;152583.09;;;14.07;100.00
54503;BME280;40411;50.090;21.954;2022-07-12T04:05:37;152598.47;;;14.13;100.00
54503;BME280;40411;50.090;21.954;2022-07-12T04:08:03;152606.16;;;14.16;100.00
54503;BME280;40411;50.090;21.954;2022-07-12T04:10:29;152633.13;;;14.27;100.00
54503;BME280;40411;50.090;21.954;2022-07-12T04:12:55;152607.44;;;14.17;100.00
54503;BME280;40411;50.090;21.954;2022-07-12T04:15:21;152604.88;;;14.16;100.00
54503;BME280;40411;50.090;21.954;2022-07-12T04:17:47;152611.31;;;14.18;100.00
54503;BME280;40411;50.090;21.954;2022-07-12T04:20:13;152621.53;;;14.22;100.00
54503;BME280;40411;50.090;21.954;2022-07-12T04:22:39;152676.72;;;14.44;100.00
54503;BME280;40411;50.090;21.954;2022-07-12T04:25:07;152701.13;;;14.54;100.00
54503;BME280;40411;50.090;21.954;2022-07-12T04:27:33;152720.38;;;14.62;100.00
54503;BME280;40411;50.090;21.954;2022-07-12T04:29:59;152670.31;;;14.42;100.00
54503;BME280;40411;50.090;21.954;2022-07-12T04:32:25;152780.72;;;14.86;100.00
54503;BME280;40411;50.090;21.954;2022-07-12T04:34:51;152688.28;;;14.49;100.00
54503;BME280;40411;50.090;21.954;2022-07-12T04:37:18;152735.78;;;14.68;100.00
54503;BME280;40411;50.090;21.954;2022-07-12T04:39:44;152696.03;;;14.52;100.00
54503;BME280;40411;50.090;21.954;2022-07-12T04:42:10;152774.31;;;14.83;100.00
54503;BME280;40411;50.090;21.954;2022-07-12T04:44:36;152775.56;;;14.84;100.00
54503;BME280;40411;50.090;21.954;2022-07-12T04:47:02;152839.75;;;15.09;100.00
54503;BME280;40411;50.090;21.954;2022-07-12T04:49:28;152817.91;;;15.01;100.00
54503;BME280;40411;50.090;21.954;2022-07-12T04:51:56;152729.34;;;14.65;100.00
54503;BME280;40411;50.090;21.954;2022-07-12T04:54:23;152844.88;;;15.11;100.00
54503;BME280;40411;50.090;21.954;2022-07-12T04:56:48;152857.72;;;15.16;100.00
54503;BME280;40411;50.090;21.954;2022-07-12T04:59:14;152829.50;;;15.05;100.00
54503;BME280;40411;50.090;21.954;2022-07-12T05:01:41;152846.16;;;15.12;100.00
54503;BME280;40411;50.090;21.954;2022-07-12T05:04:06;152857.72;;;15.16;100.00
54503;BME280;40411;50.090;21.954;2022-07-12T05:06:32;152896.22;;;15.32;100.00
54503;BME280;40411;50.090;21.954;2022-07-12T05:08:59;152880.81;;;15.26;100.00
54503;BME280;40411;50.090;21.954;2022-07-12T05:11:25;152932.22;;;15.46;100.00
54503;BME280;40411;50.090;21.954;2022-07-12T05:13:50;152873.13;;;15.23;100.00
54503;BME280;40411;50.090;21.954;2022-07-12T05:16:17;152833.31;;;15.07;100.00
54503;BME280;40411;50.090;21.954;2022-07-12T05:18:42;152850.03;;;15.13;100.00
54503;BME280;40411;50.090;21.954;2022-07-12T05:21:08;152915.50;;;15.39;100.00
54503;BME280;40411;50.090;21.954;2022-07-12T05:23:34;152952.72;;;15.54;100.00
54503;BME280;40411;50.090;21.954;2022-07-12T05:26:01;152971.97;;;15.62;100.00
54503;BME280;40411;50.090;21.954;2022-07-12T05:28:27;153113.28;;;16.18;100.00
54503;BME280;40411;50.090;21.954;2022-07-12T05:30:53;153117.16;;;16.20;100.00
54503;BME280;40411;50.090;21.954;2022-07-12T05:33:19;153200.69;;;16.53;100.00
54503;BME280;40411;50.090;21.954;2022-07-12T05:35:45;153232.75;;;16.66;100.00
54503;BME280;40411;50.090;21.954;2022-07-12T05:38:11;153281.66;;;16.85;100.00
54503;BME280;40411;50.090;21.954;2022-07-12T05:40:37;153268.84;;;16.80;100.00
54503;BME280;40411;50.090;21.954;2022-07-12T05:43:03;153273.94;;;16.82;100.00
54503;BME280;40411;50.090;21.954;2022-07-12T05:45:29;153333.09;;;17.06;100.00
54503;BME280;40411;50.090;21.954;2022-07-12T05:47:55;153324.09;;;17.02;100.00
54503;BME280;40411;50.090;21.954;2022-07-12T05:50:20;153262.41;;;16.78;100.00
54503;BME280;40411;50.090;21.954;2022-07-12T05:52:46;153137.72;;;16.28;100.00
54503;BME280;40411;50.090;21.954;2022-07-12T05:55:31;153087.63;;;16.08;100.00
54503;BME280;40411;50.090;21.954;2022-07-12T05:57:57;153109.47;;;16.17;100.00
54503;BME280;40411;50.090;21.954;2022-07-12T06:00:23;153028.53;;;15.84;100.00
54503;BME280;40411;50.090;21.954;2022-07-12T06:02:49;153014.41;;;15.79;100.00
54503;BME280;40411;50.090;21.954;2022-07-12T06:05:15;153040.09;;;15.89;100.00
54503;BME280;40411;50.090;21.954;2022-07-12T06:07:41;152974.59;;;15.63;100.00
54503;BME280;40411;50.090;21.954;2022-07-12T06:10:07;152978.41;;;15.64;100.00
54503;BME280;40411;50.090;21.954;2022-07-12T06:12:33;152970.69;;;15.61;100.00
54503;BME280;40411;50.090;21.954;2022-07-12T06:14:59;152939.91;;;15.49;100.00
54503;BME280;40411;50.090;21.954;2022-07-12T06:17:24;152984.81;;;15.67;100.00
54503;BME280;40411;50.090;21.954;2022-07-12T06:19:51;153058.06;;;15.96;100.00
54503;BME280;40411;50.090;21.954;2022-07-12T06:22:17;153047.81;;;15.92;100.00
54503;BME280;40411;50.090;21.954;2022-07-12T06:24:43;153149.31;;;16.33;100.00
54503;BME280;40411;50.090;21.954;2022-07-12T06:27:09;153227.66;;;16.64;100.00
54503;BME280;40411;50.090;21.954;2022-07-12T06:29:35;153280.38;;;16.85;100.00
54503;BME280;40411;50.090;21.954;2022-07-12T06:32:01;153381.91;;;17.25;100.00
54503;BME280;40411;50.090;21.954;2022-07-12T06:34:27;153646.84;;;18.30;100.00
54503;BME280;40411;50.090;21.954;2022-07-12T06:36:52;153640.41;;;18.28;100.00
54503;BME280;40411;50.090;21.954;2022-07-12T06:39:18;153819.25;;;18.99;100.00
54503;BME280;40411;50.090;21.954;2022-07-12T06:41:44;154126.97;;;20.21;100.00
54503;BME280;40411;50.090;21.954;2022-07-12T06:44:10;154286.72;;;20.85;100.00
54503;BME280;40411;50.090;21.954;2022-07-12T06:46:36;154306.06;;;20.92;99.24
54503;BME280;40411;50.090;21.954;2022-07-12T06:49:02;154112.78;;;20.16;100.00
54503;BME280;40411;50.090;21.954;2022-07-12T06:51:28;154146.28;;;20.29;100.00
54503;BME280;40411;50.090;21.954;2022-07-12T06:53:54;153913.22;;;19.36;100.00
54503;BME280;40411;50.090;21.954;2022-07-12T06:56:20;153743.28;;;18.69;100.00
54503;BME280;40411;50.090;21.954;2022-07-12T06:58:46;153724.03;;;18.61;100.00
54503;BME280;40411;50.090;21.954;2022-07-12T07:01:12;153767.81;;;18.79;100.00
54503;BME280;40411;50.090;21.954;2022-07-12T07:03:38;153736.84;;;18.66;100.00
54503;BME280;40411;50.090;21.954;2022-07-12T07:06:03;153812.81;;;18.96;100.00
54503;BME280;40411;50.090;21.954;2022-07-12T07:08:29;153780.69;;;18.84;100.00
54503;BME280;40411;50.090;21.954;2022-07-12T07:10:57;153636.53;;;18.26;100.00
54503;BME280;40411;50.090;21.954;2022-07-12T07:13:23;153651.97;;;18.33;100.00
54503;BME280;40411;50.090;21.954;2022-07-12T07:15:52;153549.13;;;17.92;100.00
54503;BME280;40411;50.090;21.954;2022-07-12T07:18:18;153637.81;;;18.27;100.00
54503;BME280;40411;50.090;21.954;2022-07-12T07:20:44;153549.13;;;17.92;100.00
54503;BME280;40411;50.090;21.954;2022-07-12T07:23:10;153576.06;;;18.02;100.00
54503;BME280;40411;50.090;21.954;2022-07-12T07:25:36;153671.28;;;18.40;100.00
54503;BME280;40411;50.090;21.954;2022-07-12T07:28:02;153560.66;;;17.96;100.00
54503;BME280;40411;50.090;21.954;2022-07-12T07:30:27;153626.28;;;18.22;100.00
54503;BME280;40411;50.090;21.954;2022-07-12T07:33:13;153552.94;;;17.93;100.00
54503;BME280;40411;50.090;21.954;2022-07-12T07:35:39;153886.19;;;19.26;100.00
54503;BME280;40411;50.090;21.954;2022-07-12T07:38:05;153888.75;;;19.27;100.00
54503;BME280;40411;50.090;21.954;2022-07-12T07:40:31;154020.09;;;19.79;100.00
54503;BME280;40411;50.090;21.954;2022-07-12T07:42:58;153978.84;;;19.62;100.00
54503;BME280;40411;50.090;21.954;2022-07-12T07:45:23;153924.78;;;19.41;100.00
54503;BME280;40411;50.090;21.954;2022-07-12T07:47:50;153924.78;;;19.41;100.00
54503;BME280;40411;50.090;21.954;2022-07-12T07:50:16;153735.59;;;18.66;100.00
54503;BME280;40411;50.090;21.954;2022-07-12T07:52:42;153787.13;;;18.86;100.00
54503;BME280;40411;50.090;21.954;2022-07-12T07:55:08;153911.91;;;19.36;100.00
54503;BME280;40411;50.090;21.954;2022-07-12T07:57:34;154335.69;;;21.04;99.55
54503;BME280;40411;50.090;21.954;2022-07-12T08:00:00;154477.44;;;21.60;95.15
54503;BME280;40411;50.090;21.954;2022-07-12T08:02:27;154228.78;;;20.62;100.00
54503;BME280;40411;50.090;21.954;2022-07-12T08:04:53;154111.53;;;20.15;100.00
54503;BME280;40411;50.090;21.954;2022-07-12T08:07:18;153875.88;;;19.22;100.00
54503;BME280;40411;50.090;21.954;2022-07-12T08:09:44;153881.03;;;19.24;100.00
54503;BME280;40411;50.090;21.954;2022-07-12T08:12:10;153736.84;;;18.66;100.00
54503;BME280;40411;50.090;21.954;2022-07-12T08:14:36;153825.69;;;19.02;100.00
54503;BME280;40411;50.090;21.954;2022-07-12T08:17:02;153998.22;;;19.70;100.00
54503;BME280;40411;50.090;21.954;2022-07-12T08:19:28;154451.66;;;21.50;97.44
54503;BME280;40411;50.090;21.954;2022-07-12T08:21:54;154834.66;;;23.02;92.34
54503;BME280;40411;50.090;21.954;2022-07-12T08:24:20;155006.22;;;23.70;86.27
54503;BME280;40411;50.090;21.954;2022-07-12T08:26:45;154391.06;;;21.26;96.11
54503;BME280;40411;50.090;21.954;2022-07-12T08:29:11;154437.47;;;21.45;92.79
54503;BME280;40411;50.090;21.954;2022-07-12T08:31:37;154411.69;;;21.34;94.87
54503;BME280;40411;50.090;21.954;2022-07-12T08:34:03;154318.91;;;20.97;100.00
54503;BME280;40411;50.090;21.954;2022-07-12T08:36:29;153834.69;;;19.05;100.00
54503;BME280;40411;50.090;21.954;2022-07-12T08:38:55;153753.59;;;18.73;100.00
54503;BME280;40411;50.090;21.954;2022-07-12T08:41:20;153763.94;;;18.77;100.00
54503;BME280;40411;50.090;21.954;2022-07-12T08:43:46;153803.84;;;18.93;100.00
54503;BME280;40411;50.090;21.954;2022-07-12T08:46:14;154334.41;;;21.04;100.00
54503;BME280;40411;50.090;21.954;2022-07-12T08:48:42;154394.91;;;21.28;100.00
54503;BME280;40411;50.090;21.954;2022-07-12T08:51:13;154579.28;;;22.01;98.98
54503;BME280;40411;50.090;21.954;2022-07-12T08:53:40;154519.97;;;21.77;98.75
54503;BME280;40411;50.090;21.954;2022-07-12T08:56:07;154785.63;;;22.83;92.97
54503;BME280;40411;50.090;21.954;2022-07-12T08:59:18;154358.84;;;21.13;100.00
54503;BME280;40411;50.090;21.954;2022-07-12T09:01:51;154927.53;;;23.39;96.49
54503;BME280;40411;50.090;21.954;2022-07-12T09:04:24;154731.44;;;22.61;91.16
54503;BME280;40411;50.090;21.954;2022-07-12T09:06:51;154605.03;;;22.11;95.71
54503;BME280;40411;50.090;21.954;2022-07-12T09:09:31;154269.94;;;20.78;99.45
54503;BME280;40411;50.090;21.954;2022-07-12T09:11:57;154948.19;;;23.47;90.65
54503;BME280;40411;50.090;21.954;2022-07-12T09:14:24;155163.72;;;24.33;87.94
54503;BME280;40411;50.090;21.954;2022-07-12T09:16:59;154752.06;;;22.69;94.29
54503;BME280;40411;50.090;21.954;2022-07-12T09:19:26;154930.09;;;23.40;90.83
54503;BME280;40411;50.090;21.954;2022-07-12T09:21:53;154695.34;;;22.47;94.50
54503;BME280;40411;50.090;21.954;2022-07-12T09:24:23;154981.72;;;23.60;91.13
54503;BME280;40411;50.090;21.954;2022-07-12T09:27:02;155050.19;;;23.88;86.54
54503;BME280;40411;50.090;21.954;2022-07-12T09:29:30;155294.13;;;24.84;84.62
54503;BME280;40411;50.090;21.954;2022-07-12T09:31:56;155251.53;;;24.67;82.69
54503;BME280;40411;50.090;21.954;2022-07-12T09:34:41;154992.03;;;23.64;85.93
54503;BME280;40411;50.090;21.954;2022-07-12T09:37:26;155609.34;;;26.09;76.44
54503;BME280;40411;50.090;21.954;2022-07-12T09:39:53;155481.44;;;25.58;75.71
54503;BME280;40411;50.090;21.954;2022-07-12T09:42:19;154837.22;;;23.03;79.50
54503;BME280;40411;50.090;21.954;2022-07-12T09:44:46;154429.75;;;21.41;86.90
54503;BME280;40411;50.090;21.954;2022-07-12T09:47:13;154443.94;;;21.47;89.53
54503;BME280;40411;50.090;21.954;2022-07-12T09:49:42;154522.53;;;21.78;87.02
54503;BME280;40411;50.090;21.954;2022-07-12T09:52:27;154759.81;;;22.72;81.07
54503;BME280;40411;50.090;21.954;2022-07-12T09:54:55;155220.56;;;24.55;76.29
54503;BME280;40411;50.090;21.954;2022-07-12T09:57:33;155078.56;;;23.99;77.49
54503;BME280;40411;50.090;21.954;2022-07-12T10:00:00;155083.69;;;24.01;78.17
54503;BME280;40411;50.090;21.954;2022-07-12T10:02:37;155134.00;;;24.21;79.26
54503;BME280;40411;50.090;21.954;2022-07-12T10:05:04;154813.97;;;22.94;81.78
54503;BME280;40411;50.090;21.954;2022-07-12T10:07:33;154574.13;;;21.99;85.93
54503;BME280;40411;50.090;21.954;2022-07-12T10:09:59;154429.75;;;21.41;87.30
54503;BME280;40411;50.090;21.954;2022-07-12T10:12:25;155037.25;;;23.82;84.13
54503;BME280;40411;50.090;21.954;2022-07-12T10:15:04;155270.91;;;24.75;79.93
54503;BME280;40411;50.090;21.954;2022-07-12T10:17:32;155767.03;;;26.71;72.91
54503;BME280;40411;50.090;21.954;2022-07-12T10:20:22;155425.91;;;25.36;76.85
54503;BME280;40411;50.090;21.954;2022-07-12T10:22:54;155500.81;;;25.66;72.21
54503;BME280;40411;50.090;21.954;2022-07-12T10:27:52;154620.50;;;22.17;81.00
54503;BME280;40411;50.090;21.954;2022-07-12T10:30:23;154294.44;;;20.88;86.84
54503;BME280;40411;50.090;21.954;2022-07-12T10:32:51;153958.25;;;19.54;92.48
54503;BME280;40411;50.090;21.954;2022-07-12T10:35:21;154453.00;;;21.51;88.85
54503;BME280;40411;50.090;21.954;2022-07-12T10:40:39;155141.78;;;24.24;80.36
54503;BME280;40411;50.090;21.954;2022-07-12T10:45:33;155033.38;;;23.81;75.04
54503;BME280;40411;50.090;21.954;2022-07-12T10:48:04;155003.66;;;23.69;73.89
54503;BME280;40411;50.090;21.954;2022-07-12T10:53:49;154948.19;;;23.47;70.51
54503;BME280;40411;50.090;21.954;2022-07-12T10:58:48;155214.13;;;24.52;75.76
54503;BME280;40411;50.090;21.954;2022-07-12T11:01:28;155144.34;;;24.25;75.95
54503;BME280;40411;50.090;21.954;2022-07-12T11:04:05;155201.19;;;24.47;74.01
54503;BME280;40411;50.090;21.954;2022-07-12T11:06:37;154892.69;;;23.25;73.74
54503;BME280;40411;50.090;21.954;2022-07-12T11:09:11;154746.91;;;22.67;77.60
54503;BME280;40411;50.090;21.954;2022-07-12T11:11:43;155023.06;;;23.77;75.99
54503;BME280;40411;50.090;21.954;2022-07-12T11:14:11;154948.19;;;23.47;75.14
54503;BME280;40411;50.090;21.954;2022-07-12T11:16:44;155047.56;;;23.86;69.70
54503;BME280;40411;50.090;21.954;2022-07-12T11:19:11;154875.94;;;23.18;71.77
54503;BME280;40411;50.090;21.954;2022-07-12T11:21:36;154888.84;;;23.24;70.91
54503;BME280;40411;50.090;21.954;2022-07-12T11:24:15;154919.78;;;23.36;70.86
54503;BME280;40411;50.090;21.954;2022-07-12T11:26:42;155052.75;;;23.89;71.70
54503;BME280;40411;50.090;21.954;2022-07-12T11:29:07;155023.06;;;23.77;69.63
54503;BME280;40411;50.090;21.954;2022-07-12T11:31:33;155144.34;;;24.25;71.69
54503;BME280;40411;50.090;21.954;2022-07-12T11:33:59;155079.84;;;23.99;69.08
54503;BME280;40411;50.090;21.954;2022-07-12T11:36:25;155229.59;;;24.59;67.56
54503;BME280;40411;50.090;21.954;2022-07-12T11:38:52;154905.59;;;23.30;70.12
54503;BME280;40411;50.090;21.954;2022-07-12T11:41:18;154915.91;;;23.34;68.40
54503;BME280;40411;50.090;21.954;2022-07-12T11:43:45;154896.59;;;23.27;69.83
54503;BME280;40411;50.090;21.954;2022-07-12T11:46:11;154953.34;;;23.49;68.71
54503;BME280;40411;50.090;21.954;2022-07-12T11:48:38;154928.81;;;23.39;68.36
54503;BME280;40411;50.090;21.954;2022-07-12T11:51:06;154943.00;;;23.45;67.11
54503;BME280;40411;50.090;21.954;2022-07-12T11:53:34;154948.19;;;23.47;68.64
54503;BME280;40411;50.090;21.954;2022-07-12T11:56:01;154734.06;;;22.62;69.09
54503;BME280;40411;50.090;21.954;2022-07-12T11:58:28;154759.81;;;22.72;69.89
54503;BME280;40411;50.090;21.954;2022-07-12T12:00:56;154701.78;;;22.49;65.47
54503;BME280;40411;50.090;21.954;2022-07-12T12:03:23;154816.53;;;22.95;59.49
54503;BME280;40411;50.090;21.954;2022-07-12T12:05:51;154865.59;;;23.14;62.45
54503;BME280;40411;50.090;21.954;2022-07-12T12:08:17;154808.81;;;22.92;60.14
54503;BME280;40411;50.090;21.954;2022-07-12T12:10:57;154819.19;;;22.96;61.57
54503;BME280;40411;50.090;21.954;2022-07-12T12:13:28;154948.19;;;23.47;60.81
54503;BME280;40411;50.090;21.954;2022-07-12T12:16:01;154930.09;;;23.40;59.23
54503;BME280;40411;50.090;21.954;2022-07-12T12:21:00;154971.38;;;23.56;58.10
54503;BME280;40411;50.090;21.954;2022-07-12T12:23:27;154943.00;;;23.45;59.53
54503;BME280;40411;50.090;21.954;2022-07-12T12:26:19;155216.69;;;24.53;55.88
54503;BME280;40411;50.090;21.954;2022-07-12T12:31:17;155194.75;;;24.45;56.42
54503;BME280;40411;50.090;21.954;2022-07-12T12:33:45;155042.38;;;23.84;56.71
54503;BME280;40411;50.090;21.954;2022-07-12T12:36:19;155126.28;;;24.18;56.17
54503;BME280;40411;50.090;21.954;2022-07-12T12:38:55;155060.47;;;23.92;56.48
54503;BME280;40411;50.090;21.954;2022-07-12T12:41:23;155079.84;;;23.99;57.93
54503;BME280;40411;50.090;21.954;2022-07-12T12:44:00;155128.88;;;24.19;59.02
54503;BME280;40411;50.090;21.954;2022-07-12T12:46:53;154901.72;;;23.29;61.77
54503;BME280;40411;50.090;21.954;2022-07-12T12:49:46;154567.69;;;21.96;65.81
54503;BME280;40411;50.090;21.954;2022-07-12T12:52:12;154409.09;;;21.33;68.83
54503;BME280;40411;50.090;21.954;2022-07-12T12:54:38;153837.28;;;19.06;96.24